Time;durP1;ratioP1;P1;durP2;ratioP2;P2;SDS_P1;SDS_P2;PMS_P1;PMS_P2;Temp;Humidity;BMP_temperature;BMP_pressure;BME280_temperature;BME280_humidity;BME280_pressure;Samples;Min_cycle;Max_cycle;Signal;HPM_P1;HPM_P2
2022/09/04 00:00:24;;;;;;;6.10;1.42;;;16.80;86.20;;;;;;4999209;28;20516;-92
2022/09/04 00:03:25;;;;;;;4.57;1.35;;;16.80;86.00;;;;;;4994206;28;20058;-92
2022/09/04 00:05:54;;;;;;;6.95;1.45;;;16.70;86.20;;;;;;4996913;28;20053;-92
2022/09/04 00:08:47;;;;;;;4.32;1.20;;;16.70;86.30;;;;;;4991720;28;20144;-92
2022/09/04 00:11:43;;;;;;;6.28;1.33;;;16.70;87.00;;;;;;5014018;28;20042;-92
2022/09/04 00:14:18;;;;;;;3.55;1.33;;;16.60;86.90;;;;;;5031212;28;20067;-92
2022/09/04 00:17:02;;;;;;;2.83;1.10;;;16.60;86.60;;;;;;5065643;28;20156;-91
2022/09/04 00:19:55;;;;;;;3.40;1.37;;;16.50;86.90;;;;;;5066567;28;20121;-91
2022/09/04 00:22:51;;;;;;;3.38;1.30;;;16.50;87.00;;;;;;5068511;28;20044;-91
2022/09/04 00:25:27;;;;;;;3.50;1.40;;;16.40;87.20;;;;;;5067179;28;20055;-92
2022/09/04 00:28:01;;;;;;;7.82;1.67;;;16.40;87.10;;;;;;5067916;28;20041;-91
2022/09/04 00:30:27;;;;;;;4.43;1.40;;;16.40;87.20;;;;;;5068195;28;20044;-92
2022/09/04 00:32:56;;;;;;;3.25;1.38;;;16.30;87.40;;;;;;5075335;28;20060;-91
2022/09/04 00:35:39;;;;;;;3.65;1.40;;;16.30;87.50;;;;;;5075208;28;20496;-92
2022/09/04 00:38:41;;;;;;;7.68;1.92;;;16.30;87.70;;;;;;5071485;28;20040;-91
2022/09/04 00:41:32;;;;;;;3.75;1.60;;;16.20;88.20;;;;;;5061564;28;20045;-92
2022/09/04 00:44:35;;;;;;;3.60;1.20;;;16.20;88.00;;;;;;5085656;28;20477;-91
2022/09/04 00:47:31;;;;;;;3.65;1.58;;;16.10;88.50;;;;;;5070368;28;20063;-92
2022/09/04 00:50:35;;;;;;;5.97;1.40;;;16.10;88.70;;;;;;5068479;28;20561;-92
2022/09/04 00:53:13;;;;;;;7.25;1.70;;;16.00;88.40;;;;;;4996280;28;20057;-92
2022/09/04 00:55:53;;;;;;;5.32;1.55;;;16.00;88.50;;;;;;5009617;28;20042;-91
2022/09/04 00:58:50;;;;;;;3.58;1.30;;;15.90;88.90;;;;;;4997002;28;20085;-92
2022/09/04 01:01:25;;;;;;;3.95;1.58;;;15.90;89.10;;;;;;5014108;28;20501;-91
2022/09/04 01:04:05;;;;;;;5.88;1.40;;;15.90;89.00;;;;;;4991389;28;20054;-92
2022/09/04 01:07:00;;;;;;;3.08;1.42;;;15.90;89.10;;;;;;4996496;28;20041;-91
2022/09/04 01:09:53;;;;;;;4.20;1.25;;;15.80;89.20;;;;;;4989972;28;20045;-92
2022/09/04 01:12:44;;;;;;;6.25;1.50;;;15.80;89.40;;;;;;4991964;28;20137;-91
2022/09/04 01:15:34;;;;;;;4.72;1.40;;;15.80;89.70;;;;;;5010912;28;20084;-91
2022/09/04 01:18:05;;;;;;;3.28;1.40;;;15.80;90.00;;;;;;5008443;28;20505;-91
2022/09/04 01:20:52;;;;;;;3.47;1.60;;;15.70;90.00;;;;;;4995039;28;20041;-91
2022/09/04 01:24:18;;;;;;;7.68;1.90;;;15.70;90.10;;;;;;5008095;28;20424;-91
2022/09/04 01:26:47;;;;;;;3.85;1.50;;;15.70;90.20;;;;;;5027931;28;20055;-92
2022/09/04 01:29:53;;;;;;;4.45;1.80;;;15.60;90.00;;;;;;5029214;28;20552;-91
2022/09/04 01:32:34;;;;;;;4.07;1.77;;;15.60;90.30;;;;;;5045824;28;20124;-91
2022/09/04 01:35:14;;;;;;;4.88;1.60;;;15.60;90.20;;;;;;5043212;28;20128;-92
2022/09/04 01:38:06;;;;;;;5.38;1.58;;;15.50;90.30;;;;;;5031509;28;20060;-92
2022/09/04 01:40:42;;;;;;;4.30;1.75;;;15.50;90.30;;;;;;5035913;28;20063;-92
2022/09/04 01:43:17;;;;;;;5.53;2.08;;;15.50;90.40;;;;;;5031996;28;20136;-91
2022/09/04 01:45:48;;;;;;;4.30;1.80;;;15.40;90.40;;;;;;5038141;28;20140;-92
2022/09/04 01:48:20;;;;;;;4.13;1.80;;;15.40;90.40;;;;;;5047309;28;20049;-91
2022/09/04 01:50:52;;;;;;;4.25;1.80;;;15.40;90.40;;;;;;5039395;28;20049;-91
2022/09/04 01:53:24;;;;;;;5.28;2.05;;;15.30;90.50;;;;;;5041630;28;20097;-92
2022/09/04 01:55:57;;;;;;;4.45;2.00;;;15.30;90.60;;;;;;5030400;28;20049;-92
2022/09/04 01:58:38;;;;;;;6.00;2.08;;;15.30;90.70;;;;;;5027205;28;20048;-92
2022/09/04 02:01:16;;;;;;;5.70;1.77;;;15.30;90.80;;;;;;5067444;28;20128;-92
2022/09/04 02:03:56;;;;;;;5.07;1.90;;;15.20;90.90;;;;;;5071447;28;20052;-92
2022/09/04 02:06:59;;;;;;;5.78;1.90;;;15.20;90.90;;;;;;5066618;28;20198;-91
2022/09/04 02:10:03;;;;;;;6.55;2.00;;;15.20;91.00;;;;;;5066008;28;20080;-91
2022/09/04 02:12:48;;;;;;;4.13;1.70;;;15.10;91.10;;;;;;5063714;28;20047;-92
2022/09/04 02:15:57;;;;;;;6.00;1.90;;;15.10;91.00;;;;;;5055780;28;20530;-92
2022/09/04 02:18:44;;;;;;;3.58;2.00;;;15.10;91.40;;;;;;5017850;28;20444;-91
2022/09/04 02:21:26;;;;;;;9.43;2.22;;;15.00;91.40;;;;;;4998487;28;20200;-91
2022/09/04 02:24:15;;;;;;;4.05;1.73;;;15.00;91.50;;;;;;4999152;28;20045;-92
2022/09/04 02:27:07;;;;;;;7.85;2.15;;;15.00;91.50;;;;;;5031184;28;20116;-91
2022/09/04 02:29:38;;;;;;;9.43;1.98;;;14.90;91.60;;;;;;5031493;28;20517;-91
2022/09/04 02:32:04;;;;;;;5.25;2.40;;;14.90;91.60;;;;;;5014859;28;20133;-91
2022/09/04 02:34:48;;;;;;;4.72;2.17;;;14.90;91.60;;;;;;5104934;22;20077;-89
2022/09/04 02:37:33;;;;;;;4.10;1.88;;;14.80;91.70;;;;;;5059311;28;20167;-89
2022/09/04 02:40:10;;;;;;;5.10;1.80;;;14.80;91.70;;;;;;5054440;28;20091;-90
2022/09/04 02:42:41;;;;;;;8.15;2.08;;;14.80;91.90;;;;;;5049008;28;20067;-89
2022/09/04 02:45:21;;;;;;;4.78;2.00;;;14.80;92.00;;;;;;5054582;28;20116;-89
2022/09/04 02:47:52;;;;;;;3.17;1.67;;;14.70;91.90;;;;;;5052200;28;20077;-89
2022/09/04 02:50:56;;;;;;;5.85;2.20;;;14.70;91.90;;;;;;5057060;28;20116;-89
2022/09/04 02:53:29;;;;;;;4.28;2.30;;;14.70;92.30;;;;;;5075111;28;20041;-89
2022/09/04 02:56:38;;;;;;;5.75;1.70;;;14.70;92.00;;;;;;5060236;28;20040;-89
2022/09/04 02:59:31;;;;;;;4.32;1.83;;;14.70;92.20;;;;;;5042491;28;20080;-89
2022/09/04 03:02:03;;;;;;;3.78;1.88;;;14.70;92.20;;;;;;5065695;28;20049;-90
2022/09/04 03:04:48;;;;;;;6.53;2.42;;;14.70;92.10;;;;;;5052103;28;20080;-89
2022/09/04 03:07:35;;;;;;;5.90;1.90;;;14.70;92.30;;;;;;5055543;28;20055;-89
2022/09/04 03:10:17;;;;;;;5.15;1.95;;;14.70;92.60;;;;;;5053202;28;20045;-89
2022/09/04 03:13:03;;;;;;;4.07;1.98;;;14.70;92.30;;;;;;5054965;28;20153;-89
2022/09/04 03:15:48;;;;;;;4.68;2.08;;;14.70;92.50;;;;;;5052959;28;20041;-89
2022/09/04 03:18:32;;;;;;;5.75;2.03;;;14.60;92.30;;;;;;5053609;28;20110;-89
2022/09/04 03:21:13;;;;;;;4.18;1.88;;;14.60;92.50;;;;;;5057339;28;20337;-89
2022/09/04 03:23:50;;;;;;;5.72;2.17;;;14.60;92.40;;;;;;5038950;28;20049;-89
2022/09/04 03:26:22;;;;;;;5.15;1.92;;;14.50;92.50;;;;;;5056575;28;20045;-89
2022/09/04 03:29:08;;;;;;;4.75;2.40;;;14.50;92.60;;;;;;5035117;28;20053;-89
2022/09/04 03:31:46;;;;;;;7.60;2.28;;;14.50;92.70;;;;;;5053160;28;20040;-88
2022/09/04 03:34:28;;;;;;;5.22;1.98;;;14.60;92.80;;;;;;5056160;28;20377;-89
2022/09/04 03:37:19;;;;;;;5.25;2.13;;;14.40;92.80;;;;;;5051652;28;20045;-90
2022/09/04 03:40:06;;;;;;;5.35;2.20;;;14.30;92.90;;;;;;5074767;28;20102;-90
2022/09/04 03:42:52;;;;;;;5.00;2.10;;;14.30;93.00;;;;;;5054311;28;20064;-89
2022/09/04 03:45:53;;;;;;;7.43;2.25;;;14.30;93.10;;;;;;5059530;28;20068;-89
2022/09/04 03:48:44;;;;;;;6.40;2.50;;;14.30;93.30;;;;;;4978343;28;20102;-89
2022/09/04 03:51:31;;;;;;;4.05;2.35;;;14.20;93.20;;;;;;4977820;28;20078;-90
2022/09/04 03:54:28;;;;;;;4.65;2.10;;;14.20;93.30;;;;;;4980448;28;20086;-89
2022/09/04 03:57:05;;;;;;;5.13;2.58;;;14.10;93.30;;;;;;4959273;28;20581;-89
2022/09/04 03:59:49;;;;;;;7.28;2.45;;;14.10;93.30;;;;;;4975235;28;20135;-89
2022/09/04 04:02:25;;;;;;;8.23;2.50;;;14.10;93.50;;;;;;4978538;28;20050;-89
2022/09/04 04:05:09;;;;;;;8.98;2.35;;;14.10;93.40;;;;;;4952251;28;20092;-89
2022/09/04 04:07:53;;;;;;;5.13;2.38;;;14.10;93.60;;;;;;4978372;28;20050;-89
2022/09/04 04:10:45;;;;;;;6.13;2.17;;;14.10;93.70;;;;;;4976044;28;20047;-89
2022/09/04 04:13:37;;;;;;;8.75;2.20;;;14.00;93.60;;;;;;4965121;28;20100;-90
2022/09/04 04:16:23;;;;;;;6.05;2.60;;;14.00;93.70;;;;;;4960501;28;20116;-88
2022/09/04 04:19:09;;;;;;;4.43;2.33;;;14.00;93.90;;;;;;4977388;28;20055;-89
2022/09/04 04:21:59;;;;;;;6.03;2.50;;;13.90;93.80;;;;;;4943493;28;20043;-89
2022/09/04 04:25:07;;;;;;;4.60;2.20;;;13.90;94.00;;;;;;5007399;28;20451;-88
2022/09/04 04:28:11;;;;;;;4.93;2.70;;;13.90;94.10;;;;;;4970814;28;20142;-89
2022/09/04 04:30:53;;;;;;;5.43;2.35;;;13.80;94.20;;;;;;4974109;28;20078;-89
2022/09/04 04:33:41;;;;;;;7.72;2.70;;;13.20;94.10;;;;;;4947611;28;20199;-88
2022/09/04 04:36:41;;;;;;;6.82;2.40;;;13.80;94.30;;;;;;4974471;28;21910;-89
2022/09/04 04:39:25;;;;;;;5.78;2.40;;;13.80;94.60;;;;;;4992924;28;20510;-89
2022/09/04 04:42:04;;;;;;;7.93;2.50;;;13.70;94.40;;;;;;4973234;28;20054;-89
2022/09/04 04:47:55;;;;;;;5.18;2.70;;;13.70;94.70;;;;;;4975743;28;20053;-90
2022/09/04 04:51:11;;;;;;;5.85;2.25;;;13.70;94.70;;;;;;4978957;28;20070;-89
2022/09/04 04:54:01;;;;;;;7.03;2.55;;;13.70;95.00;;;;;;4921534;29;20601;-89
2022/09/04 04:56:50;;;;;;;4.28;2.28;;;13.60;94.80;;;;;;4953102;28;20404;-89
2022/09/04 04:59:34;;;;;;;7.72;2.63;;;13.60;95.20;;;;;;4955358;29;20570;-88
2022/09/04 05:02:27;;;;;;;4.53;2.57;;;13.60;94.90;;;;;;4942021;29;20083;-89
2022/09/04 05:05:15;;;;;;;4.45;2.10;;;13.60;95.10;;;;;;4982041;28;20306;-89
2022/09/04 05:08:03;;;;;;;5.10;2.67;;;13.60;95.10;;;;;;4990954;28;20042;-89
2022/09/04 05:10:51;;;;;;;5.47;2.63;;;13.60;95.10;;;;;;4970486;28;20066;-90
2022/09/04 05:13:32;;;;;;;7.05;2.40;;;13.60;95.30;;;;;;4961305;28;20043;-89
2022/09/04 05:16:19;;;;;;;6.57;2.67;;;13.60;95.40;;;;;;4959368;28;20058;-90
2022/09/04 05:18:54;;;;;;;6.57;2.90;;;13.60;95.50;;;;;;4968868;28;20526;-89
2022/09/04 05:21:49;;;;;;;5.65;2.38;;;13.60;95.50;;;;;;4974838;28;20068;-89
2022/09/04 05:24:22;;;;;;;4.45;2.42;;;13.60;95.70;;;;;;4967622;28;20429;-88
2022/09/04 05:26:55;;;;;;;8.30;3.00;;;13.60;95.50;;;;;;4991313;28;20054;-90
2022/09/04 05:29:58;;;;;;;6.30;2.90;;;13.60;95.60;;;;;;4996862;28;20104;-88
2022/09/04 05:32:32;;;;;;;5.43;2.30;;;13.60;95.80;;;;;;4931754;28;20414;-90
2022/09/04 05:35:01;;;;;;;6.88;2.63;;;13.60;95.80;;;;;;4981974;28;20116;-90
2022/09/04 05:37:41;;;;;;;9.57;2.85;;;13.60;95.80;;;;;;5033576;28;20058;-85
2022/09/04 05:40:31;;;;;;;4.57;2.80;;;13.60;95.80;;;;;;5034544;28;20036;-90
2022/09/04 05:43:13;;;;;;;4.82;2.20;;;13.70;96.00;;;;;;5028546;28;20055;-89
2022/09/04 05:46:01;;;;;;;5.25;3.00;;;13.70;95.90;;;;;;5036358;28;20079;-90
2022/09/04 05:48:48;;;;;;;5.47;2.60;;;13.80;95.90;;;;;;5035392;28;20077;-89
2022/09/04 05:51:28;;;;;;;4.35;2.55;;;13.80;95.80;;;;;;5032942;28;20256;-90
2022/09/04 05:54:14;;;;;;;4.43;2.33;;;13.90;95.80;;;;;;5030877;28;20463;-88
2022/09/04 05:56:46;;;;;;;5.38;2.30;;;14.00;95.80;;;;;;5020166;28;20049;-89
2022/09/04 05:59:33;;;;;;;5.47;2.80;;;14.10;95.70;;;;;;5034150;28;20455;-88
2022/09/04 06:02:37;;;;;;;9.20;2.92;;;14.20;95.80;;;;;;5029674;28;20067;-88
2022/09/04 06:05:18;;;;;;;5.50;3.03;;;14.30;95.50;;;;;;5055401;28;20059;-90
2022/09/04 06:07:52;;;;;;;6.57;2.83;;;14.30;95.40;;;;;;5029525;28;20076;-92
2022/09/04 06:10:20;;;;;;;3.90;2.53;;;14.40;95.50;;;;;;5046853;28;20045;-91
2022/09/04 06:13:06;;;;;;;7.60;3.08;;;14.40;95.50;;;;;;5053222;28;20073;-91
2022/09/04 06:16:13;;;;;;;7.50;2.70;;;14.40;95.60;;;;;;5047246;28;20151;-92
2022/09/04 06:18:58;;;;;;;5.30;2.50;;;14.40;95.80;;;;;;5050304;28;20287;-85
2022/09/04 06:21:45;;;;;;;4.78;2.50;;;14.50;95.60;;;;;;5043046;28;20064;-86
2022/09/04 06:24:36;;;;;;;12.32;2.47;;;14.50;95.70;;;;;;5047460;28;20048;-83
2022/09/04 06:27:23;;;;;;;5.30;3.00;;;14.50;95.90;;;;;;5035602;28;20046;-84
2022/09/04 06:30:10;;;;;;;6.72;3.28;;;14.50;95.80;;;;;;5049238;28;20052;-88
2022/09/04 06:32:51;;;;;;;4.70;2.70;;;14.50;95.70;;;;;;5045834;28;20041;-85
2022/09/04 06:35:29;;;;;;;6.30;3.00;;;14.60;95.70;;;;;;5047075;28;20056;-85
2022/09/04 06:38:13;;;;;;;7.78;2.95;;;14.60;95.70;;;;;;5038849;28;20045;-84
2022/09/04 06:40:51;;;;;;;5.70;3.15;;;14.60;95.70;;;;;;5049022;28;20045;-84
2022/09/04 06:43:58;;;;;;;4.95;2.83;;;14.60;95.90;;;;;;5048711;28;20053;-84
2022/09/04 06:46:37;;;;;;;6.55;3.05;;;14.60;96.00;;;;;;5046581;28;20038;-84
2022/09/04 06:49:34;;;;;;;5.82;2.88;;;14.70;96.10;;;;;;5047621;28;20142;-84
2022/09/04 06:52:23;;;;;;;7.70;3.28;;;14.70;96.10;;;;;;5038718;28;20053;-84
2022/09/04 06:55:08;;;;;;;6.82;2.83;;;14.70;96.10;;;;;;5049521;28;20059;-84
2022/09/04 06:57:46;;;;;;;7.07;3.38;;;14.80;96.00;;;;;;5041684;28;20065;-84
2022/09/04 07:00:14;;;;;;;8.88;3.10;;;14.80;96.00;;;;;;5046485;28;20059;-85
2022/09/04 07:02:49;;;;;;;4.32;2.75;;;14.90;95.90;;;;;;5048238;28;20044;-84
2022/09/04 07:05:44;;;;;;;5.15;2.90;;;14.90;96.20;;;;;;5043508;28;20045;-84
2022/09/04 07:08:41;;;;;;;5.72;3.08;;;15.00;96.30;;;;;;5042994;28;20091;-84
2022/09/04 07:11:56;;;;;;;6.90;3.05;;;15.10;96.10;;;;;;5047057;28;20046;-84
2022/09/04 07:14:44;;;;;;;5.13;3.25;;;15.10;96.00;;;;;;5048641;28;20072;-84
2022/09/04 07:17:38;;;;;;;5.88;3.00;;;15.20;96.10;;;;;;5048697;28;20077;-83
2022/09/04 07:20:24;;;;;;;7.27;3.40;;;15.30;95.90;;;;;;5048579;28;20063;-85
2022/09/04 07:23:14;;;;;;;5.55;2.90;;;15.30;96.00;;;;;;5058099;28;20049;-84
2022/09/04 07:25:58;;;;;;;5.43;2.53;;;15.40;95.90;;;;;;5045419;28;20072;-84
2022/09/04 07:28:40;;;;;;;4.57;2.40;;;15.50;95.80;;;;;;5048498;28;20033;-84
2022/09/04 07:31:39;;;;;;;5.00;2.85;;;15.50;95.90;;;;;;5048311;28;20167;-84
2022/09/04 07:34:10;;;;;;;6.75;3.63;;;15.60;96.10;;;;;;5044327;28;20056;-84
2022/09/04 07:36:42;;;;;;;7.03;2.92;;;15.70;95.90;;;;;;5046770;28;20110;-84
2022/09/04 07:39:44;;;;;;;8.75;3.00;;;15.70;95.80;;;;;;5047382;28;20041;-84
2022/09/04 07:42:28;;;;;;;7.07;3.28;;;15.80;95.70;;;;;;5045933;28;20053;-84
2022/09/04 07:45:05;;;;;;;6.32;3.00;;;15.80;95.70;;;;;;5046661;28;20041;-84
2022/09/04 07:47:46;;;;;;;7.63;3.10;;;16.00;95.50;;;;;;5044602;28;20128;-84
2022/09/04 07:50:31;;;;;;;5.22;2.80;;;16.10;95.70;;;;;;5043368;28;20102;-84
2022/09/04 07:53:03;;;;;;;4.95;2.78;;;16.10;95.60;;;;;;5043961;28;20579;-84
2022/09/04 07:55:45;;;;;;;7.35;2.65;;;16.20;95.60;;;;;;5049736;28;20476;-84
2022/09/04 07:58:48;;;;;;;5.50;2.67;;;16.70;95.90;;;;;;5041240;28;20121;-84
2022/09/04 08:01:22;;;;;;;7.82;2.88;;;16.30;95.60;;;;;;5042071;28;20041;-83
2022/09/04 08:04:21;;;;;;;6.63;2.78;;;16.40;95.60;;;;;;5050888;28;20149;-83
2022/09/04 08:06:55;;;;;;;6.50;3.22;;;16.40;95.80;;;;;;5039389;28;20178;-83
2022/09/04 08:09:48;;;;;;;10.20;3.00;;;16.50;95.70;;;;;;5045775;28;20079;-84
2022/09/04 08:12:32;;;;;;;6.05;2.83;;;16.60;95.60;;;;;;5041849;28;20511;-85
2022/09/04 08:15:47;;;;;;;7.20;2.78;;;16.90;95.60;;;;;;5047362;28;20041;-85
2022/09/04 08:18:35;;;;;;;8.75;2.55;;;16.80;95.70;;;;;;4966011;28;20062;-84
2022/09/04 08:21:34;;;;;;;5.75;2.35;;;16.90;95.40;;;;;;4970033;28;20042;-84
2022/09/04 08:24:43;;;;;;;7.07;2.90;;;17.00;95.10;;;;;;4965055;28;20055;-93
2022/09/04 08:27:46;;;;;;;6.90;2.97;;;17.20;95.20;;;;;;4947730;28;20074;-89
2022/09/04 08:30:17;;;;;;;4.80;2.63;;;17.30;94.90;;;;;;4950518;28;20058;-92
2022/09/04 08:33:22;;;;;;;5.90;2.60;;;17.40;94.70;;;;;;4967984;28;20035;-94
2022/09/04 08:36:29;;;;;;;4.22;2.40;;;17.60;94.80;;;;;;4969726;28;20480;-90
2022/09/04 08:39:12;;;;;;;6.78;2.80;;;17.70;94.50;;;;;;4935544;29;20077;-83
2022/09/04 08:41:54;;;;;;;4.22;2.38;;;17.90;94.60;;;;;;4932114;29;20142;-84
2022/09/04 08:45:02;;;;;;;5.72;2.70;;;18.00;94.60;;;;;;4937595;29;20047;-84
2022/09/04 08:48:06;;;;;;;4.53;2.17;;;18.10;94.50;;;;;;4936608;29;20095;-85
2022/09/04 08:51:10;;;;;;;7.20;2.42;;;18.20;94.10;;;;;;4920356;29;20510;-84
2022/09/04 08:53:48;;;;;;;3.80;2.05;;;18.40;94.30;;;;;;4933333;28;20046;-84
2022/09/04 08:56:34;;;;;;;5.00;2.67;;;18.60;94.10;;;;;;4986119;28;20141;-85
2022/09/04 08:59:23;;;;;;;4.95;2.35;;;18.70;94.00;;;;;;5004985;28;20065;-85
2022/09/04 09:02:10;;;;;;;6.07;2.45;;;18.90;93.50;;;;;;5007606;28;20042;-87
2022/09/04 09:04:49;;;;;;;4.82;2.13;;;19.10;93.60;;;;;;5004929;28;20061;-87
2022/09/04 09:07:46;;;;;;;6.25;2.17;;;19.20;93.70;;;;;;5005283;28;20124;-88
2022/09/04 09:10:20;;;;;;;5.85;2.65;;;19.40;93.20;;;;;;4997578;28;20067;-93
2022/09/04 09:13:17;;;;;;;5.25;2.10;;;19.60;93.20;;;;;;5023924;28;20063;-88
2022/09/04 09:16:05;;;;;;;4.80;2.08;;;19.80;92.60;;;;;;5059570;28;20033;-89
2022/09/04 09:18:54;;;;;;;6.07;2.13;;;20.10;92.60;;;;;;5044867;28;20040;-88
2022/09/04 09:21:49;;;;;;;8.00;1.90;;;20.20;92.10;;;;;;5047979;28;20036;-93
2022/09/04 09:24:43;;;;;;;4.82;1.92;;;20.50;92.10;;;;;;5049901;28;20533;-94
2022/09/04 09:27:18;;;;;;;5.32;2.03;;;20.60;91.80;;;;;;5051377;28;20040;-95
2022/09/04 09:29:49;;;;;;;8.93;2.60;;;20.80;91.80;;;;;;5049009;28;20053;-93
2022/09/04 09:32:33;;;;;;;5.95;2.10;;;20.90;91.40;;;;;;5040525;28;20041;-91
2022/09/04 09:35:07;;;;;;;5.93;1.70;;;21.10;90.90;;;;;;5045745;28;20045;-82
2022/09/04 09:38:18;;;;;;;4.20;1.63;;;21.20;90.70;;;;;;5043840;28;20053;-83
2022/09/04 09:40:54;;;;;;;8.98;1.90;;;21.30;91.00;;;;;;4945741;29;20471;-82
2022/09/04 09:43:50;;;;;;;3.75;1.52;;;21.50;91.20;;;;;;4948229;28;20047;-83
2022/09/04 09:46:46;;;;;;;3.70;1.50;;;21.60;90.50;;;;;;4932109;29;20187;-82
2022/09/04 09:49:42;;;;;;;4.93;1.92;;;21.80;90.60;;;;;;4947673;28;20526;-84
2022/09/04 09:52:34;;;;;;;4.03;1.50;;;21.90;90.20;;;;;;4948272;28;20095;-83
2022/09/04 09:55:18;;;;;;;4.85;1.60;;;22.10;90.00;;;;;;4947772;28;20055;-82
2022/09/04 09:58:20;;;;;;;6.45;1.70;;;22.30;88.90;;;;;;4948579;28;20061;-90
2022/09/04 10:00:58;;;;;;;3.65;1.60;;;22.40;89.00;;;;;;4948952;28;20047;-90
2022/09/04 10:03:47;;;;;;;6.25;1.30;;;22.50;89.20;;;;;;4949654;28;20051;-90
2022/09/04 10:06:48;;;;;;;4.72;1.20;;;22.70;88.70;;;;;;4946000;29;20055;-90
2022/09/04 10:09:46;;;;;;;4.85;1.63;;;22.80;88.00;;;;;;4892806;29;20064;-91
2022/09/04 10:12:39;;;;;;;5.03;1.45;;;23.00;86.80;;;;;;4895013;29;20112;-95
2022/09/04 10:15:05;;;;;;;3.65;1.52;;;23.10;85.80;;;;;;4961348;28;20053;-93
2022/09/04 10:17:36;;;;;;;5.25;1.52;;;23.30;86.30;;;;;;5005032;28;20444;-92
2022/09/04 10:20:45;;;;;;;3.58;1.40;;;23.40;86.40;;;;;;5008405;28;20165;-93
2022/09/04 10:23:49;;;;;;;6.65;1.50;;;23.50;84.50;;;;;;5003454;28;20092;-91
2022/09/04 10:26:37;;;;;;;7.78;2.10;;;23.60;84.20;;;;;;4984459;28;20121;-93
2022/09/04 10:29:18;;;;;;;4.20;1.50;;;23.70;84.20;;;;;;5007504;28;20050;-92
2022/09/04 10:32:16;;;;;;;2.58;1.20;;;23.80;84.40;;;;;;5006352;28;20062;-89
2022/09/04 10:34:56;;;;;;;3.25;1.30;;;23.90;84.30;;;;;;5002336;28;20054;-92
2022/09/04 10:37:43;;;;;;;5.10;1.40;;;24.10;84.50;;;;;;4989518;28;20478;-92
2022/09/04 10:41:02;;;;;;;4.65;1.40;;;24.20;83.40;;;;;;4990042;28;20077;-89
2022/09/04 10:43:46;;;;;;;4.10;1.17;;;24.30;81.20;;;;;;4993047;28;20046;-92
2022/09/04 10:46:27;;;;;;;3.10;1.13;;;24.40;83.20;;;;;;5049513;28;20044;-95
2022/09/04 10:49:32;;;;;;;4.65;1.40;;;24.60;83.30;;;;;;5064389;28;20582;-89
2022/09/04 10:52:39;;;;;;;4.00;1.50;;;24.70;81.20;;;;;;5016585;28;20083;-92
2022/09/04 10:55:23;;;;;;;3.42;1.42;;;24.80;81.10;;;;;;5040402;28;20060;-90
2022/09/04 10:58:07;;;;;;;4.13;1.52;;;24.90;81.10;;;;;;5027683;28;20048;-91
2022/09/04 11:01:10;;;;;;;5.22;1.38;;;25.00;80.40;;;;;;5046571;28;20118;-91
2022/09/04 11:04:16;;;;;;;7.07;1.52;;;25.10;80.40;;;;;;5044494;28;20114;-92
2022/09/04 11:07:01;;;;;;;4.32;1.35;;;25.20;81.30;;;;;;5049592;28;20036;-92
2022/09/04 11:09:47;;;;;;;6.15;1.10;;;25.30;79.70;;;;;;5033259;28;20566;-92
2022/09/04 11:13:03;;;;;;;4.05;1.58;;;25.30;79.40;;;;;;5009152;28;20051;-92
2022/09/04 11:15:49;;;;;;;4.57;1.30;;;25.40;79.50;;;;;;4968228;28;20511;-92
2022/09/04 11:18:25;;;;;;;12.98;1.70;;;25.50;79.70;;;;;;4969065;28;20051;-92
2022/09/04 11:21:31;;;;;;;9.00;1.70;;;25.60;80.50;;;;;;4968441;28;20065;-93
2022/09/04 11:24:20;;;;;;;4.55;1.33;;;25.70;79.80;;;;;;4952826;28;20082;-95
2022/09/04 11:27:12;;;;;;;4.03;1.20;;;25.90;79.00;;;;;;4955346;28;20101;-93
2022/09/04 11:30:16;;;;;;;5.90;1.38;;;26.00;78.20;;;;;;4969204;28;20042;-93
2022/09/04 11:32:51;;;;;;;5.53;1.60;;;26.10;78.80;;;;;;4973225;28;20054;-93
2022/09/04 11:35:38;;;;;;;4.65;1.33;;;26.20;78.80;;;;;;4950406;28;20642;-92
2022/09/04 11:38:43;;;;;;;3.00;1.00;;;26.20;79.70;;;;;;4967198;28;20054;-93
2022/09/04 11:41:21;;;;;;;4.10;1.23;;;26.30;78.50;;;;;;4968711;28;20043;-94
2022/09/04 11:43:52;;;;;;;3.78;1.17;;;26.50;78.40;;;;;;4952672;28;20703;-93
2022/09/04 11:46:33;;;;;;;4.65;1.60;;;26.60;78.60;;;;;;5014316;28;20733;-93
2022/09/04 11:49:16;;;;;;;4.47;1.30;;;26.60;77.40;;;;;;5041455;28;20053;-93
2022/09/04 11:52:07;;;;;;;3.47;1.23;;;26.80;76.40;;;;;;5046508;28;20083;-93
2022/09/04 11:55:01;;;;;;;2.63;1.08;;;26.70;77.20;;;;;;5045222;28;20055;-92
2022/09/04 11:57:59;;;;;;;4.38;1.33;;;26.70;76.40;;;;;;5043622;28;20045;-91
2022/09/04 12:00:31;;;;;;;7.95;1.63;;;26.80;76.90;;;;;;5049262;28;20044;-94
2022/09/04 12:03:28;;;;;;;3.13;1.30;;;26.80;78.20;;;;;;5037899;28;20053;-94
2022/09/04 12:06:17;;;;;;;11.65;1.80;;;26.90;78.60;;;;;;5042533;28;20053;-92
2022/09/04 12:09:00;;;;;;;4.93;1.48;;;27.00;77.90;;;;;;5046063;28;20091;-94
2022/09/04 12:11:59;;;;;;;4.55;1.48;;;27.10;77.10;;;;;;5046148;28;20040;-94
2022/09/04 12:14:39;;;;;;;5.18;1.63;;;27.10;77.00;;;;;;5061929;28;20098;-93
2022/09/04 12:17:55;;;;;;;2.95;1.20;;;27.20;77.90;;;;;;5051918;28;20052;-92
2022/09/04 12:20:57;;;;;;;3.63;1.38;;;27.20;76.70;;;;;;4971519;28;20058;-94
2022/09/04 12:23:43;;;;;;;5.15;1.30;;;27.30;76.10;;;;;;4972053;28;20055;-93
2022/09/04 12:26:21;;;;;;;3.55;1.30;;;27.30;76.80;;;;;;4967344;28;20047;-92
2022/09/04 12:29:16;;;;;;;4.78;1.20;;;27.30;77.30;;;;;;4961395;28;20082;-94
2022/09/04 12:32:01;;;;;;;3.13;1.30;;;27.30;76.30;;;;;;4970776;28;20403;-94
2022/09/04 12:34:32;;;;;;;2.35;1.17;;;27.30;77.30;;;;;;4972054;28;20063;-94
2022/09/04 12:37:04;;;;;;;3.25;1.13;;;27.30;77.50;;;;;;4974719;28;20082;-92
2022/09/04 12:40:00;;;;;;;3.75;1.00;;;27.30;77.40;;;;;;4955762;28;20062;-92
2022/09/04 12:42:44;;;;;;;3.33;1.40;;;27.40;76.40;;;;;;4952726;28;20047;-93
2022/09/04 12:45:57;;;;;;;6.35;1.40;;;27.50;77.70;;;;;;4969727;28;20047;-92
2022/09/04 12:48:53;;;;;;;4.43;1.17;;;27.60;77.10;;;;;;4909483;29;20058;-92
2022/09/04 12:51:25;;;;;;;4.45;1.30;;;27.80;76.10;;;;;;4893239;29;20060;-94
2022/09/04 12:53:59;;;;;;;2.85;1.20;;;27.80;76.70;;;;;;4897109;29;20044;-92
2022/09/04 12:56:52;;;;;;;2.88;1.20;;;27.90;75.20;;;;;;4936664;28;20055;-92
2022/09/04 12:59:32;;;;;;;3.90;1.10;;;28.00;75.40;;;;;;4977466;28;20054;-92
2022/09/04 13:02:16;;;;;;;4.93;1.10;;;28.10;75.60;;;;;;4987230;28;20030;-91
2022/09/04 13:05:02;;;;;;;2.72;0.93;;;28.20;75.80;;;;;;4982361;28;20541;-92
2022/09/04 13:07:52;;;;;;;3.97;1.23;;;28.30;75.50;;;;;;4988112;28;20137;-93
2022/09/04 13:10:45;;;;;;;3.40;1.08;;;28.30;75.40;;;;;;4967228;28;20532;-89
2022/09/04 13:13:54;;;;;;;4.05;1.20;;;28.40;75.30;;;;;;4984437;28;20066;-89
2022/09/04 13:16:54;;;;;;;6.47;1.60;;;28.30;75.90;;;;;;4910448;29;20042;-88
2022/09/04 13:20:03;;;;;;;3.65;1.30;;;28.30;75.30;;;;;;4900955;29;20047;-95
2022/09/04 13:23:04;;;;;;;3.92;1.25;;;28.30;74.60;;;;;;4913560;29;20040;-93
2022/09/04 13:25:51;;;;;;;4.18;1.30;;;28.30;75.30;;;;;;4896305;29;20065;-95
2022/09/04 13:28:36;;;;;;;3.50;1.30;;;28.30;74.90;;;;;;4903994;29;20056;-96
2022/09/04 13:31:14;;;;;;;3.05;1.33;;;28.40;74.80;;;;;;4912898;29;20112;-96
2022/09/04 13:34:05;;;;;;;5.32;1.20;;;28.40;74.80;;;;;;4922560;29;20044;-96
2022/09/04 13:37:04;;;;;;;3.90;1.10;;;28.40;74.80;;;;;;5327448;22;20044;-96
2022/09/04 13:40:17;;;;;;;5.20;1.50;;;28.50;74.00;;;;;;5307494;22;20108;-96
2022/09/04 14:50:11;;;;;;;3.60;1.38;;;28.60;73.60;;;;;;5332187;23;20057;-96
2022/09/04 14:53:06;;;;;;;4.65;1.40;;;28.60;74.80;;;;;;4985373;28;20050;-96
2022/09/04 14:56:04;;;;;;;3.17;1.30;;;28.50;74.60;;;;;;5003011;28;20070;-96
2022/09/04 14:58:44;;;;;;;5.05;1.42;;;28.50;75.40;;;;;;4999715;28;20053;-96
2022/09/04 15:01:20;;;;;;;4.80;1.50;;;28.50;75.60;;;;;;4989495;28;20073;-96
2022/09/04 15:04:12;;;;;;;2.58;1.33;;;28.40;75.40;;;;;;4983851;28;20069;-96
2022/09/04 15:06:58;;;;;;;4.60;1.52;;;28.40;75.00;;;;;;4986341;28;20589;-96
2022/09/04 15:09:35;;;;;;;5.50;1.40;;;28.30;75.40;;;;;;4971058;28;20510;-96
2022/09/04 15:12:30;;;;;;;6.10;1.50;;;28.20;75.40;;;;;;4990376;28;20050;-96
2022/09/04 15:15:13;;;;;;;2.78;1.30;;;28.20;75.80;;;;;;4951634;28;20042;-96
2022/09/04 15:17:50;;;;;;;4.03;1.40;;;28.00;75.80;;;;;;4940701;28;20047;-96
2022/09/04 15:20:23;;;;;;;5.45;1.58;;;28.00;75.30;;;;;;4953156;28;20039;-95
2022/09/04 15:22:52;;;;;;;5.38;1.58;;;27.90;75.70;;;;;;4963609;28;20391;-96
2022/09/04 15:25:46;;;;;;;2.63;1.35;;;27.90;76.30;;;;;;4951636;28;20033;-96
2022/09/04 15:31:05;;;;;;;5.68;1.80;;;27.80;76.00;;;;;;4988928;23;20515;-96
2022/09/04 15:33:33;;;;;;;6.03;2.50;;;27.80;76.00;;;;;;4950549;29;20074;-96
2022/09/04 15:36:57;;;;;;;3.78;1.83;;;27.70;75.90;;;;;;4967787;29;20050;-96
2022/09/04 15:39:31;;;;;;;5.00;1.60;;;27.60;75.70;;;;;;4938860;29;20040;-95
2022/09/04 15:41:58;;;;;;;5.03;1.67;;;27.60;76.40;;;;;;4957677;29;20049;-96